sensor_id;sensor_type;location;lat;lon;timestamp;P1;durP1;ratioP1;P2;durP2;ratioP2
59127;SDS011;44912;52.754;5.994;2023-10-19T00:01:15;21.90;;;15.68;;
59127;SDS011;44912;52.754;5.994;2023-10-19T00:03:41;21.83;;;15.40;;
59127;SDS011;44912;52.754;5.994;2023-10-19T00:06:09;21.98;;;15.23;;
59127;SDS011;44912;52.754;5.994;2023-10-19T00:08:35;20.40;;;14.75;;
59127;SDS011;44912;52.754;5.994;2023-10-19T00:11:05;21.85;;;15.38;;
59127;SDS011;44912;52.754;5.994;2023-10-19T00:13:35;21.00;;;14.70;;
59127;SDS011;44912;52.754;5.994;2023-10-19T00:16:03;22.60;;;15.10;;
59127;SDS011;44912;52.754;5.994;2023-10-19T00:18:58;21.10;;;14.77;;
59127;SDS011;44912;52.754;5.994;2023-10-19T00:21:25;22.42;;;15.07;;
59127;SDS011;44912;52.754;5.994;2023-10-19T00:23:56;23.63;;;15.40;;
59127;SDS011;44912;52.754;5.994;2023-10-19T00:26:23;23.48;;;15.88;;
59127;SDS011;44912;52.754;5.994;2023-10-19T00:28:52;25.20;;;16.05;;
59127;SDS011;44912;52.754;5.994;2023-10-19T00:31:20;24.50;;;16.60;;
59127;SDS011;44912;52.754;5.994;2023-10-19T00:33:46;21.63;;;15.93;;
59127;SDS011;44912;52.754;5.994;2023-10-19T00:36:12;23.20;;;16.17;;
59127;SDS011;44912;52.754;5.994;2023-10-19T00:38:38;22.90;;;16.10;;
59127;SDS011;44912;52.754;5.994;2023-10-19T00:43:42;23.75;;;15.88;;
59127;SDS011;44912;52.754;5.994;2023-10-19T00:46:12;25.17;;;16.52;;
59127;SDS011;44912;52.754;5.994;2023-10-19T00:48:52;21.98;;;16.08;;
59127;SDS011;44912;52.754;5.994;2023-10-19T00:51:27;22.75;;;16.67;;
59127;SDS011;44912;52.754;5.994;2023-10-19T00:54:07;25.48;;;17.30;;
59127;SDS011;44912;52.754;5.994;2023-10-19T00:56:38;22.77;;;16.98;;
59127;SDS011;44912;52.754;5.994;2023-10-19T00:59:06;22.50;;;16.80;;
59127;SDS011;44912;52.754;5.994;2023-10-19T01:01:39;24.10;;;17.45;;
59127;SDS011;44912;52.754;5.994;2023-10-19T01:04:10;25.85;;;17.30;;
59127;SDS011;44912;52.754;5.994;2023-10-19T01:06:41;23.33;;;17.40;;
59127;SDS011;44912;52.754;5.994;2023-10-19T01:09:23;23.27;;;16.83;;
59127;SDS011;44912;52.754;5.994;2023-10-19T01:11:52;23.17;;;17.17;;
59127;SDS011;44912;52.754;5.994;2023-10-19T01:14:21;24.30;;;16.98;;
59127;SDS011;44912;52.754;5.994;2023-10-19T01:16:47;22.35;;;15.98;;
59127;SDS011;44912;52.754;5.994;2023-10-19T01:19:14;21.77;;;16.60;;
59127;SDS011;44912;52.754;5.994;2023-10-19T01:21:44;22.48;;;16.55;;
59127;SDS011;44912;52.754;5.994;2023-10-19T01:24:17;22.95;;;15.50;;
59127;SDS011;44912;52.754;5.994;2023-10-19T01:26:46;21.33;;;15.55;;
59127;SDS011;44912;52.754;5.994;2023-10-19T01:29:12;20.27;;;15.30;;
59127;SDS011;44912;52.754;5.994;2023-10-19T01:31:42;21.38;;;15.63;;
59127;SDS011;44912;52.754;5.994;2023-10-19T01:34:31;20.30;;;14.43;;
59127;SDS011;44912;52.754;5.994;2023-10-19T01:36:58;21.60;;;14.85;;
59127;SDS011;44912;52.754;5.994;2023-10-19T01:39:28;17.52;;;13.27;;
59127;SDS011;44912;52.754;5.994;2023-10-19T01:41:54;21.58;;;14.98;;
59127;SDS011;44912;52.754;5.994;2023-10-19T01:44:20;20.65;;;13.77;;
59127;SDS011;44912;52.754;5.994;2023-10-19T01:46:46;19.33;;;13.88;;
59127;SDS011;44912;52.754;5.994;2023-10-19T01:49:13;17.58;;;13.00;;
59127;SDS011;44912;52.754;5.994;2023-10-19T01:51:39;17.70;;;13.07;;
59127;SDS011;44912;52.754;5.994;2023-10-19T01:54:07;18.00;;;12.85;;
59127;SDS011;44912;52.754;5.994;2023-10-19T01:56:33;16.77;;;12.80;;
59127;SDS011;44912;52.754;5.994;2023-10-19T01:59:03;17.58;;;12.77;;
59127;SDS011;44912;52.754;5.994;2023-10-19T02:01:29;18.85;;;13.05;;
59127;SDS011;44912;52.754;5.994;2023-10-19T02:04:03;17.42;;;12.18;;
59127;SDS011;44912;52.754;5.994;2023-10-19T02:06:31;16.48;;;11.85;;
59127;SDS011;44912;52.754;5.994;2023-10-19T02:11:46;16.30;;;11.85;;
59127;SDS011;44912;52.754;5.994;2023-10-19T02:14:17;15.95;;;11.10;;
59127;SDS011;44912;52.754;5.994;2023-10-19T02:16:45;16.27;;;11.65;;
59127;SDS011;44912;52.754;5.994;2023-10-19T02:19:12;15.32;;;11.45;;
59127;SDS011;44912;52.754;5.994;2023-10-19T02:21:38;16.77;;;11.77;;
59127;SDS011;44912;52.754;5.994;2023-10-19T02:24:08;15.77;;;11.40;;
59127;SDS011;44912;52.754;5.994;2023-10-19T02:26:35;15.88;;;11.73;;
59127;SDS011;44912;52.754;5.994;2023-10-19T02:29:03;15.88;;;11.02;;
59127;SDS011;44912;52.754;5.994;2023-10-19T02:31:35;13.43;;;10.45;;
59127;SDS011;44912;52.754;5.994;2023-10-19T02:34:05;15.30;;;11.23;;
59127;SDS011;44912;52.754;5.994;2023-10-19T02:36:32;15.25;;;11.63;;
59127;SDS011;44912;52.754;5.994;2023-10-19T02:38:59;15.90;;;11.98;;
59127;SDS011;44912;52.754;5.994;2023-10-19T02:41:36;15.65;;;11.95;;
59127;SDS011;44912;52.754;5.994;2023-10-19T02:44:14;16.50;;;11.98;;
59127;SDS011;44912;52.754;5.994;2023-10-19T02:46:44;18.20;;;11.93;;
59127;SDS011;44912;52.754;5.994;2023-10-19T02:49:11;15.77;;;11.80;;
59127;SDS011;44912;52.754;5.994;2023-10-19T02:51:47;16.27;;;11.98;;
59127;SDS011;44912;52.754;5.994;2023-10-19T02:54:15;17.25;;;12.27;;
59127;SDS011;44912;52.754;5.994;2023-10-19T02:56:45;16.15;;;11.55;;
59127;SDS011;44912;52.754;5.994;2023-10-19T02:59:17;17.50;;;12.70;;
59127;SDS011;44912;52.754;5.994;2023-10-19T03:01:47;15.90;;;12.20;;
59127;SDS011;44912;52.754;5.994;2023-10-19T03:04:15;16.63;;;11.90;;
59127;SDS011;44912;52.754;5.994;2023-10-19T03:06:41;16.38;;;12.15;;
59127;SDS011;44912;52.754;5.994;2023-10-19T03:09:07;17.13;;;12.43;;
59127;SDS011;44912;52.754;5.994;2023-10-19T03:11:55;16.65;;;12.70;;
59127;SDS011;44912;52.754;5.994;2023-10-19T03:14:29;18.63;;;13.07;;
59127;SDS011;44912;52.754;5.994;2023-10-19T03:16:56;18.23;;;13.43;;
59127;SDS011;44912;52.754;5.994;2023-10-19T03:19:22;17.27;;;12.50;;
59127;SDS011;44912;52.754;5.994;2023-10-19T03:21:51;16.98;;;12.40;;
59127;SDS011;44912;52.754;5.994;2023-10-19T03:24:18;17.77;;;12.88;;
59127;SDS011;44912;52.754;5.994;2023-10-19T03:27:06;16.92;;;12.77;;
59127;SDS011;44912;52.754;5.994;2023-10-19T03:29:48;18.85;;;13.93;;
59127;SDS011;44912;52.754;5.994;2023-10-19T03:32:19;18.65;;;13.88;;
59127;SDS011;44912;52.754;5.994;2023-10-19T03:34:52;18.98;;;14.13;;
59127;SDS011;44912;52.754;5.994;2023-10-19T03:37:21;19.10;;;14.73;;
59127;SDS011;44912;52.754;5.994;2023-10-19T03:39:56;20.05;;;14.88;;
59127;SDS011;44912;52.754;5.994;2023-10-19T03:42:22;18.17;;;13.68;;
59127;SDS011;44912;52.754;5.994;2023-10-19T03:44:51;19.35;;;14.80;;
59127;SDS011;44912;52.754;5.994;2023-10-19T03:47:20;19.58;;;15.07;;
59127;SDS011;44912;52.754;5.994;2023-10-19T03:49:50;19.02;;;14.35;;
59127;SDS011;44912;52.754;5.994;2023-10-19T03:52:16;19.52;;;15.45;;
59127;SDS011;44912;52.754;5.994;2023-10-19T03:54:41;19.77;;;14.80;;
59127;SDS011;44912;52.754;5.994;2023-10-19T03:57:08;20.13;;;15.75;;
59127;SDS011;44912;52.754;5.994;2023-10-19T03:59:38;20.08;;;15.95;;
59127;SDS011;44912;52.754;5.994;2023-10-19T04:02:04;22.48;;;16.45;;
59127;SDS011;44912;52.754;5.994;2023-10-19T04:04:35;20.98;;;15.80;;
59127;SDS011;44912;52.754;5.994;2023-10-19T04:07:00;20.40;;;15.95;;
59127;SDS011;44912;52.754;5.994;2023-10-19T04:09:35;25.08;;;16.80;;
59127;SDS011;44912;52.754;5.994;2023-10-19T04:12:05;19.58;;;15.60;;
59127;SDS011;44912;52.754;5.994;2023-10-19T04:14:31;19.23;;;15.23;;
59127;SDS011;44912;52.754;5.994;2023-10-19T04:16:57;23.42;;;16.48;;
59127;SDS011;44912;52.754;5.994;2023-10-19T04:19:24;21.77;;;16.45;;
59127;SDS011;44912;52.754;5.994;2023-10-19T04:21:49;20.02;;;15.98;;
59127;SDS011;44912;52.754;5.994;2023-10-19T04:24:16;22.05;;;16.92;;
59127;SDS011;44912;52.754;5.994;2023-10-19T04:26:43;20.90;;;16.13;;
59127;SDS011;44912;52.754;5.994;2023-10-19T04:29:09;19.60;;;15.70;;
59127;SDS011;44912;52.754;5.994;2023-10-19T04:31:38;18.48;;;16.10;;
59127;SDS011;44912;52.754;5.994;2023-10-19T04:34:15;20.77;;;16.45;;
59127;SDS011;44912;52.754;5.994;2023-10-19T04:36:45;20.73;;;17.05;;
59127;SDS011;44912;52.754;5.994;2023-10-19T04:39:11;18.75;;;15.48;;
59127;SDS011;44912;52.754;5.994;2023-10-19T04:41:39;22.83;;;17.45;;
59127;SDS011;44912;52.754;5.994;2023-10-19T04:44:06;22.48;;;17.17;;
59127;SDS011;44912;52.754;5.994;2023-10-19T04:46:33;25.80;;;18.05;;
59127;SDS011;44912;52.754;5.994;2023-10-19T04:48:59;22.23;;;16.95;;
59127;SDS011;44912;52.754;5.994;2023-10-19T04:51:25;20.63;;;16.80;;
59127;SDS011;44912;52.754;5.994;2023-10-19T04:53:50;22.73;;;17.77;;
59127;SDS011;44912;52.754;5.994;2023-10-19T04:56:16;25.48;;;17.73;;
59127;SDS011;44912;52.754;5.994;2023-10-19T04:58:41;21.85;;;17.60;;
59127;SDS011;44912;52.754;5.994;2023-10-19T05:01:07;25.05;;;18.42;;
59127;SDS011;44912;52.754;5.994;2023-10-19T05:03:33;22.65;;;18.85;;
59127;SDS011;44912;52.754;5.994;2023-10-19T05:05:59;23.83;;;18.85;;
59127;SDS011;44912;52.754;5.994;2023-10-19T05:08:25;26.60;;;19.73;;
59127;SDS011;44912;52.754;5.994;2023-10-19T05:10:52;25.25;;;18.60;;
59127;SDS011;44912;52.754;5.994;2023-10-19T05:13:20;25.83;;;18.60;;
59127;SDS011;44912;52.754;5.994;2023-10-19T05:15:46;24.52;;;18.77;;
59127;SDS011;44912;52.754;5.994;2023-10-19T05:18:12;26.17;;;19.60;;
59127;SDS011;44912;52.754;5.994;2023-10-19T05:20:37;33.63;;;20.88;;
59127;SDS011;44912;52.754;5.994;2023-10-19T05:23:06;28.50;;;19.33;;
59127;SDS011;44912;52.754;5.994;2023-10-19T05:25:33;23.25;;;18.63;;
59127;SDS011;44912;52.754;5.994;2023-10-19T05:28:01;25.55;;;19.73;;
59127;SDS011;44912;52.754;5.994;2023-10-19T05:30:27;26.15;;;19.55;;
59127;SDS011;44912;52.754;5.994;2023-10-19T05:32:55;24.70;;;20.13;;
59127;SDS011;44912;52.754;5.994;2023-10-19T05:35:20;36.08;;;23.63;;
59127;SDS011;44912;52.754;5.994;2023-10-19T05:37:51;26.55;;;20.67;;
59127;SDS011;44912;52.754;5.994;2023-10-19T05:40:17;27.35;;;20.42;;
59127;SDS011;44912;52.754;5.994;2023-10-19T05:42:44;28.52;;;20.83;;
59127;SDS011;44912;52.754;5.994;2023-10-19T05:45:11;27.25;;;20.70;;
59127;SDS011;44912;52.754;5.994;2023-10-19T05:47:38;33.25;;;21.77;;
59127;SDS011;44912;52.754;5.994;2023-10-19T05:50:04;25.77;;;20.50;;
59127;SDS011;44912;52.754;5.994;2023-10-19T05:52:30;23.05;;;18.88;;
59127;SDS011;44912;52.754;5.994;2023-10-19T05:54:55;26.35;;;20.45;;
59127;SDS011;44912;52.754;5.994;2023-10-19T05:57:22;31.73;;;21.20;;
59127;SDS011;44912;52.754;5.994;2023-10-19T05:59:49;37.78;;;22.48;;
59127;SDS011;44912;52.754;5.994;2023-10-19T06:02:14;26.77;;;20.80;;
59127;SDS011;44912;52.754;5.994;2023-10-19T06:04:40;24.42;;;19.30;;
59127;SDS011;44912;52.754;5.994;2023-10-19T06:07:06;27.45;;;21.00;;
59127;SDS011;44912;52.754;5.994;2023-10-19T06:09:31;32.35;;;21.98;;
59127;SDS011;44912;52.754;5.994;2023-10-19T06:11:57;30.25;;;22.58;;
59127;SDS011;44912;52.754;5.994;2023-10-19T06:14:22;29.23;;;21.30;;
59127;SDS011;44912;52.754;5.994;2023-10-19T06:16:48;30.17;;;22.15;;
59127;SDS011;44912;52.754;5.994;2023-10-19T06:19:13;32.85;;;22.65;;
59127;SDS011;44912;52.754;5.994;2023-10-19T06:21:41;34.03;;;23.08;;
59127;SDS011;44912;52.754;5.994;2023-10-19T06:24:07;29.02;;;23.02;;
59127;SDS011;44912;52.754;5.994;2023-10-19T06:26:33;32.90;;;23.33;;
59127;SDS011;44912;52.754;5.994;2023-10-19T06:28:58;31.60;;;23.58;;
59127;SDS011;44912;52.754;5.994;2023-10-19T06:31:24;31.80;;;23.85;;
59127;SDS011;44912;52.754;5.994;2023-10-19T06:33:51;33.17;;;23.65;;
59127;SDS011;44912;52.754;5.994;2023-10-19T06:36:17;34.10;;;23.38;;
59127;SDS011;44912;52.754;5.994;2023-10-19T06:38:44;33.35;;;22.88;;
59127;SDS011;44912;52.754;5.994;2023-10-19T06:41:13;33.47;;;23.60;;
59127;SDS011;44912;52.754;5.994;2023-10-19T06:43:39;33.80;;;23.42;;
59127;SDS011;44912;52.754;5.994;2023-10-19T06:46:05;33.92;;;23.45;;
59127;SDS011;44912;52.754;5.994;2023-10-19T06:48:31;31.15;;;23.02;;
59127;SDS011;44912;52.754;5.994;2023-10-19T06:50:57;31.48;;;23.20;;
59127;SDS011;44912;52.754;5.994;2023-10-19T06:53:23;29.48;;;23.00;;
59127;SDS011;44912;52.754;5.994;2023-10-19T06:55:49;36.03;;;24.48;;
59127;SDS011;44912;52.754;5.994;2023-10-19T06:58:15;34.75;;;24.60;;
59127;SDS011;44912;52.754;5.994;2023-10-19T07:00:44;35.53;;;23.90;;
59127;SDS011;44912;52.754;5.994;2023-10-19T07:03:10;29.13;;;22.58;;
59127;SDS011;44912;52.754;5.994;2023-10-19T07:05:36;31.10;;;23.17;;
59127;SDS011;44912;52.754;5.994;2023-10-19T07:08:02;35.80;;;24.77;;
59127;SDS011;44912;52.754;5.994;2023-10-19T07:10:31;35.42;;;24.42;;
59127;SDS011;44912;52.754;5.994;2023-10-19T07:12:59;36.65;;;24.40;;
59127;SDS011;44912;52.754;5.994;2023-10-19T07:15:25;29.88;;;21.85;;
59127;SDS011;44912;52.754;5.994;2023-10-19T07:17:51;36.08;;;24.77;;
59127;SDS011;44912;52.754;5.994;2023-10-19T07:20:19;36.67;;;24.83;;
59127;SDS011;44912;52.754;5.994;2023-10-19T07:22:51;35.63;;;24.10;;
59127;SDS011;44912;52.754;5.994;2023-10-19T07:25:17;40.33;;;25.30;;
59127;SDS011;44912;52.754;5.994;2023-10-19T07:27:49;34.28;;;24.92;;
59127;SDS011;44912;52.754;5.994;2023-10-19T07:30:18;32.33;;;23.75;;
59127;SDS011;44912;52.754;5.994;2023-10-19T07:32:51;33.65;;;24.00;;
59127;SDS011;44912;52.754;5.994;2023-10-19T07:35:23;35.80;;;24.60;;
59127;SDS011;44912;52.754;5.994;2023-10-19T07:37:51;34.90;;;24.35;;
59127;SDS011;44912;52.754;5.994;2023-10-19T07:40:17;34.58;;;24.45;;
59127;SDS011;44912;52.754;5.994;2023-10-19T07:42:46;30.70;;;22.58;;
59127;SDS011;44912;52.754;5.994;2023-10-19T07:45:13;39.17;;;24.30;;
59127;SDS011;44912;52.754;5.994;2023-10-19T07:47:40;32.85;;;22.88;;
59127;SDS011;44912;52.754;5.994;2023-10-19T07:50:12;33.25;;;24.17;;
59127;SDS011;44912;52.754;5.994;2023-10-19T07:52:52;31.98;;;23.40;;
59127;SDS011;44912;52.754;5.994;2023-10-19T07:55:20;30.35;;;22.48;;
59127;SDS011;44912;52.754;5.994;2023-10-19T07:57:51;31.80;;;22.42;;
59127;SDS011;44912;52.754;5.994;2023-10-19T08:00:18;33.22;;;23.90;;
59127;SDS011;44912;52.754;5.994;2023-10-19T08:02:45;35.88;;;24.85;;
59127;SDS011;44912;52.754;5.994;2023-10-19T08:05:11;39.20;;;25.13;;
59127;SDS011;44912;52.754;5.994;2023-10-19T08:07:38;33.28;;;24.52;;
59127;SDS011;44912;52.754;5.994;2023-10-19T08:10:05;37.55;;;24.52;;
59127;SDS011;44912;52.754;5.994;2023-10-19T08:12:34;33.08;;;24.13;;
59127;SDS011;44912;52.754;5.994;2023-10-19T08:15:00;31.20;;;23.23;;
59127;SDS011;44912;52.754;5.994;2023-10-19T08:17:26;37.67;;;24.38;;
59127;SDS011;44912;52.754;5.994;2023-10-19T08:19:52;35.85;;;24.23;;
59127;SDS011;44912;52.754;5.994;2023-10-19T08:22:17;35.85;;;24.65;;
59127;SDS011;44912;52.754;5.994;2023-10-19T08:24:44;31.80;;;23.25;;
59127;SDS011;44912;52.754;5.994;2023-10-19T08:27:11;29.45;;;22.05;;
59127;SDS011;44912;52.754;5.994;2023-10-19T08:29:38;28.75;;;21.42;;
59127;SDS011;44912;52.754;5.994;2023-10-19T08:32:03;39.05;;;24.05;;
59127;SDS011;44912;52.754;5.994;2023-10-19T08:34:29;30.65;;;22.00;;
59127;SDS011;44912;52.754;5.994;2023-10-19T08:37:01;34.80;;;23.08;;
59127;SDS011;44912;52.754;5.994;2023-10-19T08:39:27;33.92;;;23.13;;
59127;SDS011;44912;52.754;5.994;2023-10-19T08:41:53;37.40;;;23.17;;
59127;SDS011;44912;52.754;5.994;2023-10-19T08:44:20;28.23;;;21.92;;
59127;SDS011;44912;52.754;5.994;2023-10-19T08:46:46;34.28;;;21.92;;
59127;SDS011;44912;52.754;5.994;2023-10-19T08:49:12;29.85;;;21.80;;
59127;SDS011;44912;52.754;5.994;2023-10-19T08:51:40;30.80;;;22.17;;
59127;SDS011;44912;52.754;5.994;2023-10-19T08:54:12;27.92;;;21.10;;
59127;SDS011;44912;52.754;5.994;2023-10-19T08:56:39;31.02;;;22.05;;
59127;SDS011;44912;52.754;5.994;2023-10-19T08:59:06;29.40;;;20.42;;
59127;SDS011;44912;52.754;5.994;2023-10-19T09:01:32;30.25;;;22.13;;
59127;SDS011;44912;52.754;5.994;2023-10-19T09:04:00;32.13;;;21.50;;
59127;SDS011;44912;52.754;5.994;2023-10-19T09:06:26;32.10;;;22.48;;
59127;SDS011;44912;52.754;5.994;2023-10-19T09:08:54;28.20;;;20.60;;
59127;SDS011;44912;52.754;5.994;2023-10-19T09:11:20;26.83;;;19.60;;
59127;SDS011;44912;52.754;5.994;2023-10-19T09:13:47;29.00;;;20.75;;
59127;SDS011;44912;52.754;5.994;2023-10-19T09:16:14;33.83;;;21.58;;
59127;SDS011;44912;52.754;5.994;2023-10-19T09:18:43;30.73;;;21.15;;
59127;SDS011;44912;52.754;5.994;2023-10-19T09:21:10;29.83;;;20.20;;
59127;SDS011;44912;52.754;5.994;2023-10-19T09:23:49;28.10;;;19.63;;
59127;SDS011;44912;52.754;5.994;2023-10-19T09:26:15;28.70;;;19.83;;
59127;SDS011;44912;52.754;5.994;2023-10-19T09:28:41;24.70;;;18.45;;
59127;SDS011;44912;52.754;5.994;2023-10-19T09:31:07;30.10;;;20.63;;
59127;SDS011;44912;52.754;5.994;2023-10-19T09:33:35;29.92;;;21.10;;
59127;SDS011;44912;52.754;5.994;2023-10-19T09:36:02;30.20;;;20.45;;
59127;SDS011;44912;52.754;5.994;2023-10-19T09:38:30;28.77;;;20.63;;
59127;SDS011;44912;52.754;5.994;2023-10-19T09:40:56;28.63;;;20.90;;
59127;SDS011;44912;52.754;5.994;2023-10-19T09:43:35;29.23;;;20.60;;
59127;SDS011;44912;52.754;5.994;2023-10-19T09:46:06;27.95;;;20.45;;
59127;SDS011;44912;52.754;5.994;2023-10-19T09:48:34;29.88;;;21.15;;
59127;SDS011;44912;52.754;5.994;2023-10-19T09:51:04;28.85;;;21.02;;
59127;SDS011;44912;52.754;5.994;2023-10-19T09:53:33;29.15;;;21.88;;
59127;SDS011;44912;52.754;5.994;2023-10-19T09:55:59;29.73;;;21.40;;
59127;SDS011;44912;52.754;5.994;2023-10-19T09:58:31;34.47;;;23.17;;
59127;SDS011;44912;52.754;5.994;2023-10-19T10:01:19;28.15;;;20.67;;
59127;SDS011;44912;52.754;5.994;2023-10-19T10:03:53;29.73;;;21.10;;
59127;SDS011;44912;52.754;5.994;2023-10-19T10:06:29;33.25;;;22.00;;
59127;SDS011;44912;52.754;5.994;2023-10-19T10:09:17;33.33;;;21.80;;
59127;SDS011;44912;52.754;5.994;2023-10-19T10:11:48;26.90;;;20.13;;
59127;SDS011;44912;52.754;5.994;2023-10-19T10:14:24;30.55;;;21.55;;
59127;SDS011;44912;52.754;5.994;2023-10-19T10:17:00;30.20;;;20.40;;
59127;SDS011;44912;52.754;5.994;2023-10-19T10:19:34;26.83;;;20.58;;
59127;SDS011;44912;52.754;5.994;2023-10-19T10:22:10;30.08;;;20.25;;
59127;SDS011;44912;52.754;5.994;2023-10-19T10:24:45;24.05;;;19.20;;
59127;SDS011;44912;52.754;5.994;2023-10-19T10:27:11;25.85;;;20.08;;
59127;SDS011;44912;52.754;5.994;2023-10-19T10:29:58;27.80;;;20.02;;
59127;SDS011;44912;52.754;5.994;2023-10-19T10:38:05;24.52;;;18.17;;
59127;SDS011;44912;52.754;5.994;2023-10-19T10:40:48;27.08;;;18.90;;
59127;SDS011;44912;52.754;5.994;2023-10-19T10:43:15;26.17;;;18.13;;
59127;SDS011;44912;52.754;5.994;2023-10-19T10:45:41;24.85;;;19.08;;
59127;SDS011;44912;52.754;5.994;2023-10-19T10:48:13;26.75;;;18.58;;
59127;SDS011;44912;52.754;5.994;2023-10-19T10:50:40;23.67;;;17.85;;
59127;SDS011;44912;52.754;5.994;2023-10-19T10:53:11;25.58;;;17.92;;
59127;SDS011;44912;52.754;5.994;2023-10-19T10:55:37;23.80;;;18.88;;
59127;SDS011;44912;52.754;5.994;2023-10-19T10:58:04;23.85;;;18.17;;
59127;SDS011;44912;52.754;5.994;2023-10-19T11:00:30;22.88;;;17.70;;
59127;SDS011;44912;52.754;5.994;2023-10-19T11:03:06;24.58;;;17.90;;
59127;SDS011;44912;52.754;5.994;2023-10-19T11:05:35;24.42;;;18.35;;
59127;SDS011;44912;52.754;5.994;2023-10-19T11:08:09;24.05;;;18.27;;
59127;SDS011;44912;52.754;5.994;2023-10-19T11:10:40;23.40;;;18.08;;
59127;SDS011;44912;52.754;5.994;2023-10-19T11:13:07;24.92;;;17.40;;
59127;SDS011;44912;52.754;5.994;2023-10-19T11:15:34;21.33;;;17.27;;
59127;SDS011;44912;52.754;5.994;2023-10-19T11:18:02;23.20;;;17.40;;
59127;SDS011;44912;52.754;5.994;2023-10-19T11:20:28;21.80;;;17.23;;
59127;SDS011;44912;52.754;5.994;2023-10-19T11:22:55;20.83;;;16.65;;
59127;SDS011;44912;52.754;5.994;2023-10-19T11:25:25;19.10;;;16.40;;
59127;SDS011;44912;52.754;5.994;2023-10-19T11:27:58;18.10;;;14.13;;
59127;SDS011;44912;52.754;5.994;2023-10-19T11:30:26;19.80;;;14.57;;
59127;SDS011;44912;52.754;5.994;2023-10-19T11:32:53;17.45;;;14.18;;
59127;SDS011;44912;52.754;5.994;2023-10-19T11:35:23;18.17;;;13.57;;
59127;SDS011;44912;52.754;5.994;2023-10-19T11:37:50;18.27;;;12.52;;
59127;SDS011;44912;52.754;5.994;2023-10-19T11:40:18;16.60;;;11.43;;
59127;SDS011;44912;52.754;5.994;2023-10-19T11:42:44;16.73;;;11.75;;
59127;SDS011;44912;52.754;5.994;2023-10-19T11:45:10;16.05;;;11.45;;
59127;SDS011;44912;52.754;5.994;2023-10-19T11:47:37;16.35;;;11.30;;
59127;SDS011;44912;52.754;5.994;2023-10-19T11:50:02;17.20;;;13.20;;
59127;SDS011;44912;52.754;5.994;2023-10-19T11:52:28;19.10;;;13.40;;
59127;SDS011;44912;52.754;5.994;2023-10-19T11:54:55;19.42;;;13.63;;
59127;SDS011;44912;52.754;5.994;2023-10-19T11:57:21;18.92;;;13.82;;
59127;SDS011;44912;52.754;5.994;2023-10-19T11:59:46;17.67;;;14.32;;
59127;SDS011;44912;52.754;5.994;2023-10-19T12:02:17;22.20;;;15.02;;
59127;SDS011;44912;52.754;5.994;2023-10-19T12:04:44;20.38;;;14.00;;
59127;SDS011;44912;52.754;5.994;2023-10-19T12:07:10;17.70;;;12.75;;
59127;SDS011;44912;52.754;5.994;2023-10-19T12:09:36;18.83;;;13.65;;
59127;SDS011;44912;52.754;5.994;2023-10-19T12:12:01;17.10;;;13.07;;
59127;SDS011;44912;52.754;5.994;2023-10-19T12:14:31;20.92;;;14.48;;
59127;SDS011;44912;52.754;5.994;2023-10-19T12:16:59;19.40;;;14.55;;
59127;SDS011;44912;52.754;5.994;2023-10-19T12:19:27;20.92;;;17.98;;
59127;SDS011;44912;52.754;5.994;2023-10-19T12:21:54;23.77;;;19.67;;
59127;SDS011;44912;52.754;5.994;2023-10-19T12:24:20;21.60;;;18.23;;
59127;SDS011;44912;52.754;5.994;2023-10-19T12:26:46;24.27;;;18.33;;
59127;SDS011;44912;52.754;5.994;2023-10-19T12:29:12;24.13;;;18.52;;
59127;SDS011;44912;52.754;5.994;2023-10-19T12:31:39;26.23;;;19.13;;
59127;SDS011;44912;52.754;5.994;2023-10-19T12:34:06;23.25;;;17.92;;
59127;SDS011;44912;52.754;5.994;2023-10-19T12:36:32;23.33;;;18.33;;
59127;SDS011;44912;52.754;5.994;2023-10-19T12:38:59;24.65;;;18.58;;
59127;SDS011;44912;52.754;5.994;2023-10-19T12:41:25;28.17;;;21.70;;
59127;SDS011;44912;52.754;5.994;2023-10-19T12:43:55;23.05;;;20.55;;
59127;SDS011;44912;52.754;5.994;2023-10-19T12:46:27;26.15;;;21.48;;
59127;SDS011;44912;52.754;5.994;2023-10-19T12:48:54;28.70;;;22.63;;
59127;SDS011;44912;52.754;5.994;2023-10-19T12:51:23;26.60;;;22.33;;
59127;SDS011;44912;52.754;5.994;2023-10-19T12:53:52;28.77;;;23.80;;
59127;SDS011;44912;52.754;5.994;2023-10-19T12:56:22;31.05;;;23.40;;
59127;SDS011;44912;52.754;5.994;2023-10-19T12:58:53;27.10;;;22.35;;
59127;SDS011;44912;52.754;5.994;2023-10-19T13:01:19;30.40;;;22.90;;
59127;SDS011;44912;52.754;5.994;2023-10-19T13:03:46;30.50;;;23.85;;
59127;SDS011;44912;52.754;5.994;2023-10-19T13:06:14;30.88;;;24.13;;
59127;SDS011;44912;52.754;5.994;2023-10-19T13:08:40;31.65;;;23.70;;
59127;SDS011;44912;52.754;5.994;2023-10-19T13:11:07;30.45;;;22.23;;
59127;SDS011;44912;52.754;5.994;2023-10-19T13:13:33;29.98;;;22.85;;
59127;SDS011;44912;52.754;5.994;2023-10-19T13:16:01;33.13;;;25.00;;
59127;SDS011;44912;52.754;5.994;2023-10-19T13:18:30;34.30;;;24.40;;
59127;SDS011;44912;52.754;5.994;2023-10-19T13:20:59;34.60;;;26.92;;
59127;SDS011;44912;52.754;5.994;2023-10-19T13:23:29;31.35;;;25.95;;
59127;SDS011;44912;52.754;5.994;2023-10-19T13:25:58;35.08;;;26.45;;
59127;SDS011;44912;52.754;5.994;2023-10-19T13:28:34;35.08;;;25.40;;
59127;SDS011;44912;52.754;5.994;2023-10-19T13:31:03;34.45;;;26.63;;
59127;SDS011;44912;52.754;5.994;2023-10-19T13:33:29;33.88;;;25.88;;
59127;SDS011;44912;52.754;5.994;2023-10-19T13:35:55;33.17;;;26.25;;
59127;SDS011;44912;52.754;5.994;2023-10-19T13:38:20;35.30;;;26.98;;
59127;SDS011;44912;52.754;5.994;2023-10-19T13:40:46;32.25;;;25.58;;
59127;SDS011;44912;52.754;5.994;2023-10-19T13:43:12;32.75;;;24.85;;
59127;SDS011;44912;52.754;5.994;2023-10-19T13:45:39;31.20;;;24.85;;
59127;SDS011;44912;52.754;5.994;2023-10-19T13:48:07;36.83;;;26.45;;
59127;SDS011;44912;52.754;5.994;2023-10-19T13:50:34;35.08;;;27.63;;
59127;SDS011;44912;52.754;5.994;2023-10-19T13:53:01;35.28;;;26.50;;
59127;SDS011;44912;52.754;5.994;2023-10-19T13:55:29;35.30;;;26.38;;
59127;SDS011;44912;52.754;5.994;2023-10-19T13:57:56;35.33;;;26.83;;
59127;SDS011;44912;52.754;5.994;2023-10-19T14:00:23;32.92;;;26.20;;
59127;SDS011;44912;52.754;5.994;2023-10-19T14:02:55;35.80;;;26.55;;
59127;SDS011;44912;52.754;5.994;2023-10-19T14:05:22;35.58;;;26.25;;
59127;SDS011;44912;52.754;5.994;2023-10-19T14:07:49;39.97;;;28.05;;
59127;SDS011;44912;52.754;5.994;2023-10-19T14:10:16;34.38;;;26.42;;
59127;SDS011;44912;52.754;5.994;2023-10-19T14:12:44;38.20;;;27.77;;
59127;SDS011;44912;52.754;5.994;2023-10-19T14:15:14;38.05;;;28.13;;
59127;SDS011;44912;52.754;5.994;2023-10-19T14:17:42;34.38;;;26.58;;
59127;SDS011;44912;52.754;5.994;2023-10-19T14:20:08;39.03;;;27.73;;
59127;SDS011;44912;52.754;5.994;2023-10-19T14:22:37;36.67;;;27.70;;
59127;SDS011;44912;52.754;5.994;2023-10-19T14:25:04;38.42;;;29.00;;
59127;SDS011;44912;52.754;5.994;2023-10-19T14:27:33;34.50;;;26.40;;
59127;SDS011;44912;52.754;5.994;2023-10-19T14:29:59;36.85;;;27.65;;
59127;SDS011;44912;52.754;5.994;2023-10-19T14:32:25;37.30;;;28.05;;
59127;SDS011;44912;52.754;5.994;2023-10-19T14:34:52;39.20;;;27.48;;
59127;SDS011;44912;52.754;5.994;2023-10-19T14:37:18;41.17;;;28.67;;
59127;SDS011;44912;52.754;5.994;2023-10-19T14:39:44;39.15;;;28.45;;